createdAt,value
2019-03-25T00:01:01.496Z,14.27
2019-03-25T00:03:30.166Z,13.10
2019-03-25T00:05:58.886Z,14.27
2019-03-25T00:08:27.561Z,13.57
2019-03-25T00:10:56.228Z,14.63
2019-03-25T00:13:24.906Z,16.13
2019-03-25T00:15:53.567Z,14.87
2019-03-25T00:18:22.284Z,13.97
2019-03-25T00:20:50.951Z,14.27
2019-03-25T00:23:19.612Z,12.13
2019-03-25T00:25:48.272Z,16.17
2019-03-25T00:28:16.936Z,12.53
2019-03-25T00:30:45.608Z,10.80
2019-03-25T00:33:14.292Z,13.87
2019-03-25T00:35:42.958Z,12.33
2019-03-25T00:38:11.617Z,11.57
2019-03-25T00:40:40.290Z,11.40
2019-03-25T00:43:08.953Z,12.03
2019-03-25T00:45:37.626Z,14.53
2019-03-25T00:48:06.293Z,15.90
2019-03-25T00:50:34.964Z,11.70
2019-03-25T00:53:03.647Z,12.77
2019-03-25T00:55:32.308Z,17.23
2019-03-25T00:58:00.975Z,12.60
2019-03-25T01:00:29.650Z,13.43
2019-03-25T01:02:58.319Z,13.53
2019-03-25T01:05:26.987Z,13.47
2019-03-25T01:07:55.650Z,15.43
2019-03-25T01:10:24.308Z,14.53
2019-03-25T01:12:52.972Z,19.10
2019-03-25T01:15:21.649Z,15.67
2019-03-25T01:17:50.320Z,12.80
2019-03-25T01:20:19.019Z,13.90
2019-03-25T01:22:47.728Z,14.27
2019-03-25T01:25:16.392Z,13.33
2019-03-25T01:27:45.064Z,12.60
2019-03-25T01:30:13.734Z,13.83
2019-03-25T01:32:42.411Z,12.50
2019-03-25T01:35:11.169Z,13.33
2019-03-25T01:37:39.856Z,13.40
2019-03-25T01:40:09.010Z,17.30
2019-03-25T01:42:37.675Z,13.97
2019-03-25T01:45:07.036Z,16.47
2019-03-25T01:47:35.719Z,15.00
2019-03-25T01:50:06.387Z,14.07
2019-03-25T01:52:35.044Z,13.60
2019-03-25T01:55:13.055Z,16.57
2019-03-25T01:57:34.295Z,18.10
2019-03-25T02:00:03.774Z,19.70
2019-03-25T02:02:32.438Z,19.90
2019-03-25T02:05:01.099Z,17.00
2019-03-25T02:07:29.764Z,20.00
2019-03-25T02:09:58.433Z,14.70
2019-03-25T02:12:27.103Z,15.03
2019-03-25T02:14:55.765Z,16.67
2019-03-25T02:17:24.426Z,15.80
2019-03-25T02:19:53.108Z,15.83
2019-03-25T02:22:21.769Z,14.70
2019-03-25T02:24:50.435Z,24.20
2019-03-25T02:27:19.110Z,18.60
2019-03-25T02:29:47.767Z,14.17
2019-03-25T02:32:16.437Z,16.63
2019-03-25T02:34:45.114Z,13.07
2019-03-25T02:37:13.770Z,13.43
2019-03-25T02:39:42.427Z,12.70
2019-03-25T02:42:11.104Z,13.80
2019-03-25T02:44:39.764Z,11.87
2019-03-25T02:47:08.416Z,14.23
2019-03-25T02:49:37.191Z,9.17
2019-03-25T02:52:05.848Z,9.57
2019-03-25T02:54:34.520Z,10.00
2019-03-25T02:57:03.276Z,10.97
2019-03-25T02:59:31.957Z,12.90
2019-03-25T03:02:00.627Z,14.13
2019-03-25T03:04:29.303Z,12.97
2019-03-25T03:06:57.960Z,10.43
2019-03-25T03:09:26.688Z,9.80
2019-03-25T03:11:55.339Z,10.27
2019-03-25T03:14:24.004Z,10.67
2019-03-25T03:16:52.662Z,9.57
2019-03-25T03:19:21.328Z,9.97
2019-03-25T03:21:50.003Z,10.70
2019-03-25T03:24:18.669Z,10.60
2019-03-25T03:26:47.326Z,9.67
2019-03-25T03:29:15.989Z,12.27
2019-03-25T03:31:44.661Z,14.97
2019-03-25T03:34:13.330Z,12.67
2019-03-25T03:36:42.020Z,11.13
2019-03-25T03:39:10.668Z,12.17
2019-03-25T03:41:39.446Z,14.23
2019-03-25T03:44:08.173Z,13.53
2019-03-25T03:46:36.881Z,14.07
2019-03-25T03:49:05.545Z,13.57
2019-03-25T03:51:34.809Z,16.90
2019-03-25T03:54:03.586Z,15.83
2019-03-25T03:56:32.555Z,16.57
2019-03-25T03:59:04.027Z,16.53
2019-03-25T04:01:32.688Z,17.73
2019-03-25T04:04:01.382Z,15.43
2019-03-25T04:06:30.025Z,12.87
2019-03-25T04:08:58.702Z,16.77
2019-03-25T04:11:27.370Z,18.47
2019-03-25T04:13:56.054Z,14.20
2019-03-25T04:16:24.728Z,18.57
2019-03-25T04:18:53.392Z,15.63
2019-03-25T04:21:22.061Z,16.20
2019-03-25T04:23:50.749Z,15.73
2019-03-25T04:26:28.465Z,13.67
2019-03-25T04:28:49.818Z,12.27
2019-03-25T04:31:18.496Z,16.10
2019-03-25T04:33:47.143Z,15.77
2019-03-25T04:36:15.835Z,17.90
2019-03-25T04:38:44.501Z,12.77
2019-03-25T04:41:13.176Z,17.30
2019-03-25T04:43:41.911Z,17.53
2019-03-25T04:46:10.531Z,18.93
2019-03-25T04:48:39.201Z,19.27
2019-03-25T04:51:08.167Z,15.83
2019-03-25T04:53:36.950Z,20.13
2019-03-25T04:56:05.618Z,18.80
2019-03-25T04:58:34.287Z,16.80
2019-03-25T05:01:02.959Z,16.57
2019-03-25T05:03:31.659Z,18.00
2019-03-25T05:06:00.320Z,20.87
2019-03-25T05:08:28.988Z,15.53
2019-03-25T05:10:57.667Z,18.07
2019-03-25T05:13:26.342Z,18.43
2019-03-25T05:15:55.008Z,18.37
2019-03-25T05:18:23.671Z,17.60
2019-03-25T05:20:52.338Z,18.03
2019-03-25T05:23:21.002Z,16.17
2019-03-25T05:25:49.675Z,20.40
2019-03-25T05:28:18.354Z,21.60
2019-03-25T05:30:47.028Z,14.53
2019-03-25T05:33:15.689Z,16.73
2019-03-25T05:35:46.743Z,156.93
2019-03-25T05:38:14.756Z,22.20
2019-03-25T05:40:43.438Z,29.27
2019-03-25T05:43:12.108Z,20.67
2019-03-25T05:45:40.771Z,22.30
2019-03-25T05:48:09.459Z,19.43
2019-03-25T05:50:38.139Z,19.23
2019-03-25T05:53:06.822Z,19.47
2019-03-25T05:55:35.997Z,19.00
2019-03-25T05:58:04.679Z,20.80
2019-03-25T06:00:34.912Z,25.63
2019-03-25T06:03:03.587Z,22.13
2019-03-25T06:05:32.281Z,21.90
2019-03-25T06:08:00.960Z,21.27
2019-03-25T06:10:29.633Z,22.43
2019-03-25T06:12:58.362Z,19.60
2019-03-25T06:15:27.056Z,19.73
2019-03-25T06:17:55.727Z,19.30
2019-03-25T06:20:24.407Z,21.73
2019-03-25T06:22:53.099Z,21.27
2019-03-25T06:25:21.795Z,19.87
2019-03-25T06:27:50.544Z,21.63
2019-03-25T06:30:20.028Z,26.37
2019-03-25T06:32:48.707Z,32.80
2019-03-25T06:35:17.374Z,21.40
2019-03-25T06:37:46.066Z,25.80
2019-03-25T06:40:14.845Z,34.23
2019-03-25T06:42:43.527Z,20.20
2019-03-25T06:45:13.420Z,25.50
2019-03-25T06:47:42.137Z,26.13
2019-03-25T06:50:11.072Z,22.20
2019-03-25T06:52:39.722Z,27.83
2019-03-25T06:55:09.153Z,19.63
2019-03-25T06:57:38.825Z,23.90
2019-03-25T07:00:09.576Z,30.40
2019-03-25T07:02:38.260Z,18.83
2019-03-25T07:05:07.363Z,20.73
2019-03-25T07:07:36.053Z,20.83
2019-03-25T07:10:06.876Z,20.77
2019-03-25T07:12:36.954Z,19.83
2019-03-25T07:15:07.992Z,23.80
2019-03-25T07:17:36.684Z,18.23
2019-03-25T07:20:07.689Z,25.47
2019-03-25T07:22:36.377Z,24.63
2019-03-25T07:25:06.260Z,19.57
2019-03-25T07:27:37.026Z,22.87
2019-03-25T07:30:08.076Z,21.77
2019-03-25T07:32:36.886Z,20.03
2019-03-25T07:35:07.269Z,21.00
2019-03-25T07:37:35.964Z,29.27
2019-03-25T07:40:10.518Z,20.13
2019-03-25T07:42:39.208Z,18.37
2019-03-25T07:45:08.902Z,21.33
2019-03-25T07:47:38.076Z,19.53
2019-03-25T07:50:08.043Z,16.50
2019-03-25T07:52:36.804Z,23.67
2019-03-25T07:55:06.287Z,18.37
2019-03-25T07:57:35.186Z,32.47
2019-03-25T08:00:13.393Z,26.33
2019-03-25T08:02:36.832Z,20.00
2019-03-25T08:05:06.435Z,17.07
2019-03-25T08:07:35.113Z,23.83
2019-03-25T08:10:04.531Z,37.42
2019-03-25T08:12:33.250Z,15.90
2019-03-25T08:15:01.974Z,19.95
2019-03-25T08:17:30.667Z,14.53
2019-03-25T08:19:59.398Z,20.72
2019-03-25T08:22:28.082Z,18.50
2019-03-25T08:24:56.772Z,21.40
2019-03-25T08:27:25.482Z,20.60
2019-03-25T08:29:54.348Z,17.35
2019-03-25T08:32:23.153Z,19.12
2019-03-25T08:34:51.815Z,13.88
2019-03-25T08:37:20.515Z,18.77
2019-03-25T08:39:49.206Z,14.33
2019-03-25T08:42:17.884Z,16.65
2019-03-25T08:44:46.640Z,27.13
2019-03-25T08:47:15.429Z,28.38
2019-03-25T08:49:44.318Z,22.73
2019-03-25T08:52:13.286Z,18.57
2019-03-25T08:54:42.068Z,27.45
2019-03-25T08:57:10.840Z,21.05
2019-03-25T08:59:39.520Z,18.23
2019-03-25T09:02:08.232Z,40.83
2019-03-25T09:04:37.048Z,19.98
2019-03-25T09:07:05.729Z,21.85
2019-03-25T09:09:34.420Z,22.05
2019-03-25T09:12:03.184Z,27.25
2019-03-25T09:14:32.074Z,25.68
2019-03-25T09:17:00.807Z,29.50
2019-03-25T09:19:29.485Z,21.70
2019-03-25T09:21:58.170Z,20.97
2019-03-25T09:24:26.884Z,17.82
2019-03-25T09:26:55.631Z,18.80
2019-03-25T09:29:24.443Z,18.87
2019-03-25T09:31:53.231Z,20.62
2019-03-25T09:34:21.936Z,23.35
2019-03-25T09:36:50.832Z,16.95
2019-03-25T09:39:19.535Z,20.65
2019-03-25T09:41:48.235Z,25.05
2019-03-25T09:44:16.922Z,18.15
2019-03-25T09:46:45.611Z,22.65
2019-03-25T09:49:14.296Z,19.07
2019-03-25T09:51:43.008Z,19.48
2019-03-25T09:54:11.699Z,18.48
2019-03-25T09:56:40.392Z,19.92
2019-03-25T09:59:09.280Z,21.75
2019-03-25T10:01:37.944Z,22.25
2019-03-25T10:04:06.800Z,22.73
2019-03-25T10:06:35.448Z,22.22
2019-03-25T10:09:05.664Z,22.45
2019-03-25T10:11:34.361Z,25.52
2019-03-25T10:14:03.097Z,19.60
2019-03-25T10:16:31.767Z,23.47
2019-03-25T10:19:00.459Z,20.60
2019-03-25T10:21:29.298Z,19.45
2019-03-25T10:23:58.026Z,23.10
2019-03-25T10:26:26.688Z,19.92
2019-03-25T10:28:55.412Z,23.07
2019-03-25T10:31:24.098Z,23.92
2019-03-25T10:33:52.888Z,16.48
2019-03-25T10:36:21.558Z,21.50
2019-03-25T10:38:50.271Z,20.30
2019-03-25T10:41:18.986Z,20.55
2019-03-25T10:43:47.895Z,19.57
2019-03-25T10:46:16.617Z,17.12
2019-03-25T10:48:45.309Z,18.35
2019-03-25T10:51:13.996Z,19.40
2019-03-25T10:53:42.687Z,20.43
2019-03-25T10:56:11.406Z,16.02
2019-03-25T10:58:40.068Z,20.43
2019-03-25T11:01:09.663Z,20.97
2019-03-25T11:03:39.603Z,20.88
2019-03-25T11:06:08.387Z,17.17
2019-03-25T11:08:37.316Z,20.90
2019-03-25T11:11:06.430Z,19.50
2019-03-25T11:13:35.341Z,26.23
2019-03-25T11:16:04.143Z,21.33
2019-03-25T11:18:38.256Z,22.37
2019-03-25T11:21:16.547Z,19.05
2019-03-25T11:23:45.353Z,16.65
2019-03-25T11:26:14.073Z,19.50
2019-03-25T11:28:42.832Z,16.75
2019-03-25T11:31:12.009Z,17.12
2019-03-25T11:33:40.685Z,21.07
2019-03-25T11:36:09.594Z,16.25
2019-03-25T11:38:38.381Z,14.93
2019-03-25T11:41:07.199Z,21.50
2019-03-25T11:43:35.970Z,13.88
2019-03-25T11:46:05.520Z,10.90
2019-03-25T11:48:34.343Z,18.20
2019-03-25T11:51:03.034Z,19.67
2019-03-25T11:53:31.797Z,14.50
2019-03-25T11:56:00.508Z,18.02
2019-03-25T11:58:29.363Z,24.63
2019-03-25T12:00:58.114Z,18.45
2019-03-25T12:03:26.816Z,16.55
2019-03-25T12:05:55.520Z,18.00
2019-03-25T12:08:24.629Z,22.25
2019-03-25T12:10:53.334Z,23.10
2019-03-25T12:13:22.139Z,14.68
2019-03-25T12:15:50.872Z,13.05
2019-03-25T12:18:19.580Z,23.90
2019-03-25T12:20:48.266Z,13.08
2019-03-25T12:23:26.028Z,15.40
2019-03-25T12:25:47.969Z,16.70
2019-03-25T12:28:16.702Z,16.00
2019-03-25T12:30:45.599Z,17.52
2019-03-25T12:33:14.511Z,16.23
2019-03-25T12:35:43.264Z,16.15
2019-03-25T12:38:11.970Z,18.57
2019-03-25T12:40:41.168Z,16.77
2019-03-25T12:43:09.907Z,17.35
2019-03-25T12:45:39.249Z,12.73
2019-03-25T12:48:09.059Z,21.37
2019-03-25T12:50:38.049Z,16.97
2019-03-25T12:53:06.874Z,16.23
2019-03-25T12:55:35.690Z,15.72
2019-03-25T12:58:03.143Z,13.98
2019-03-25T13:00:36.911Z,16.00
2019-03-25T13:03:06.423Z,15.08
2019-03-25T13:05:35.361Z,15.68
2019-03-25T13:08:04.214Z,16.27
2019-03-25T13:10:33.007Z,15.80
2019-03-25T13:13:01.864Z,13.32
2019-03-25T13:15:30.552Z,17.07
2019-03-25T13:17:59.375Z,15.68
2019-03-25T13:20:28.101Z,16.85
2019-03-25T13:22:56.869Z,13.03
2019-03-25T13:25:25.808Z,14.35
2019-03-25T13:27:54.540Z,16.27
2019-03-25T13:30:23.459Z,15.35
2019-03-25T13:32:52.575Z,14.20
2019-03-25T13:35:21.395Z,13.45
2019-03-25T13:37:50.188Z,19.05
2019-03-25T13:40:19.287Z,13.75
2019-03-25T13:42:48.127Z,13.48
2019-03-25T13:45:16.849Z,14.35
2019-03-25T13:47:45.540Z,13.18
2019-03-25T13:50:14.241Z,12.30
2019-03-25T13:52:43.258Z,16.30
2019-03-25T13:55:12.166Z,14.18
2019-03-25T13:57:40.874Z,19.82
2019-03-25T14:00:10.065Z,12.13
2019-03-25T14:02:38.926Z,12.70
2019-03-25T14:05:08.515Z,12.95
2019-03-25T14:07:37.249Z,10.00
2019-03-25T14:10:09.156Z,16.67
2019-03-25T14:12:39.484Z,12.80
2019-03-25T14:15:11.435Z,13.03
2019-03-25T14:17:40.468Z,10.38
2019-03-25T14:20:09.886Z,12.58
2019-03-25T14:22:38.868Z,13.25
2019-03-25T14:25:08.187Z,14.05
2019-03-25T14:27:36.969Z,10.95
2019-03-25T14:30:14.345Z,12.93
2019-03-25T14:32:39.237Z,15.87
2019-03-25T14:35:09.007Z,13.20
2019-03-25T14:37:37.705Z,18.50
2019-03-25T14:40:08.630Z,11.97
2019-03-25T14:42:37.399Z,12.57
2019-03-25T14:45:07.553Z,13.13
2019-03-25T14:47:36.315Z,11.83
2019-03-25T14:50:07.861Z,15.80
2019-03-25T14:52:36.600Z,13.07
2019-03-25T14:55:06.032Z,14.05
2019-03-25T14:57:34.734Z,11.08
2019-03-25T15:00:04.661Z,11.63
2019-03-25T15:02:33.701Z,12.78
2019-03-25T15:05:02.683Z,12.07
2019-03-25T15:07:32.884Z,12.50
2019-03-25T15:10:01.763Z,10.20
2019-03-25T15:12:30.776Z,16.57
2019-03-25T15:14:59.759Z,12.05
2019-03-25T15:17:28.442Z,13.35
2019-03-25T15:19:57.342Z,12.27
2019-03-25T15:22:26.335Z,14.60
2019-03-25T15:24:55.048Z,12.07
2019-03-25T15:27:23.803Z,15.47
2019-03-25T15:29:52.504Z,12.83
2019-03-25T15:32:21.231Z,14.03
2019-03-25T15:34:50.229Z,10.03
2019-03-25T15:37:18.872Z,8.87
2019-03-25T15:39:47.617Z,13.80
2019-03-25T15:42:16.411Z,13.60
2019-03-25T15:44:45.118Z,12.50
2019-03-25T15:47:14.139Z,13.20
2019-03-25T15:49:42.884Z,8.70
2019-03-25T15:52:11.596Z,13.30
2019-03-25T15:54:40.284Z,7.90
2019-03-25T15:57:09.221Z,29.50
2019-03-25T15:59:37.898Z,14.77
2019-03-25T16:02:06.664Z,11.90
2019-03-25T16:04:35.564Z,11.47
2019-03-25T16:07:05.460Z,9.50
2019-03-25T16:09:34.155Z,14.97
2019-03-25T16:12:04.907Z,9.77
2019-03-25T16:14:33.311Z,9.37
2019-03-25T16:17:01.972Z,12.47
2019-03-25T16:19:30.652Z,9.67
2019-03-25T16:21:59.449Z,13.77
2019-03-25T16:24:28.141Z,15.53
2019-03-25T16:26:56.818Z,19.90
2019-03-25T16:29:25.497Z,17.17
2019-03-25T16:31:54.200Z,17.83
2019-03-25T16:34:34.199Z,11.00
2019-03-25T16:37:02.878Z,19.13
2019-03-25T16:39:31.551Z,17.07
2019-03-25T16:42:00.466Z,17.73
2019-03-25T16:44:29.139Z,23.50
2019-03-25T16:46:57.824Z,21.03
2019-03-25T16:49:26.531Z,25.53
2019-03-25T16:51:55.223Z,25.07
2019-03-25T16:54:23.882Z,23.17
2019-03-25T16:56:52.563Z,26.40
2019-03-25T16:59:21.496Z,30.97
2019-03-25T17:01:50.196Z,33.00
2019-03-25T17:04:18.868Z,32.67
2019-03-25T17:06:47.554Z,28.43
2019-03-25T17:09:16.234Z,24.47
2019-03-25T17:11:44.924Z,28.97
2019-03-25T17:14:13.608Z,25.23
2019-03-25T17:16:42.263Z,24.30
2019-03-25T17:19:10.969Z,28.33
2019-03-25T17:21:39.687Z,23.67
2019-03-25T17:24:08.447Z,22.60
2019-03-25T17:26:42.396Z,25.60
2019-03-25T17:29:07.569Z,24.57
2019-03-25T17:31:36.267Z,25.87
2019-03-25T17:34:05.001Z,23.07
2019-03-25T17:36:33.724Z,28.47
2019-03-25T17:39:03.137Z,20.57
2019-03-25T17:41:31.941Z,22.90
2019-03-25T17:44:00.654Z,21.27
2019-03-25T17:46:29.331Z,20.97
2019-03-25T17:48:58.037Z,19.80
2019-03-25T17:51:26.810Z,21.13
2019-03-25T17:53:55.568Z,17.23
2019-03-25T17:56:24.275Z,24.07
2019-03-25T17:58:53.190Z,24.17
2019-03-25T18:01:31.783Z,19.33
2019-03-25T18:03:52.472Z,29.17
2019-03-25T18:06:21.163Z,27.10
2019-03-25T18:08:49.879Z,26.10
2019-03-25T18:11:18.566Z,26.43
2019-03-25T18:13:47.295Z,34.33
2019-03-25T18:16:15.996Z,32.90
2019-03-25T18:18:44.682Z,29.13
2019-03-25T18:21:13.909Z,30.97
2019-03-25T18:23:42.714Z,25.93
2019-03-25T18:26:11.396Z,26.37
2019-03-25T18:28:40.074Z,19.40
2019-03-25T18:31:08.758Z,28.37
2019-03-25T18:33:37.446Z,28.77
2019-03-25T18:36:06.141Z,30.60
2019-03-25T18:38:34.820Z,29.33
2019-03-25T18:41:03.548Z,27.77
2019-03-25T18:43:32.342Z,69.77
2019-03-25T18:46:01.371Z,279.07
2019-03-25T18:48:30.048Z,201.10
2019-03-25T18:51:01.916Z,145.53
2019-03-25T18:53:30.591Z,56.97
2019-03-25T18:55:59.298Z,33.27
2019-03-25T18:58:28.021Z,30.83
2019-03-25T19:00:56.736Z,23.20
2019-03-25T19:03:25.408Z,21.80
2019-03-25T19:05:54.206Z,22.53
2019-03-25T19:08:23.626Z,16.30
2019-03-25T19:10:52.299Z,13.67
2019-03-25T19:13:20.996Z,10.90
2019-03-25T19:15:49.669Z,13.20
2019-03-25T19:18:18.363Z,14.37
2019-03-25T19:20:47.867Z,12.33
2019-03-25T19:23:16.545Z,13.87
2019-03-25T19:25:45.225Z,15.37
2019-03-25T19:28:14.333Z,11.80
2019-03-25T19:30:43.086Z,12.40
2019-03-25T19:33:11.731Z,14.27
2019-03-25T19:35:40.451Z,17.93
2019-03-25T19:38:09.283Z,17.27
2019-03-25T19:40:37.970Z,14.47
2019-03-25T19:43:06.656Z,13.40
2019-03-25T19:45:35.328Z,11.57
2019-03-25T19:48:04.544Z,11.53
2019-03-25T19:50:33.451Z,14.13
2019-03-25T19:53:02.127Z,14.93
2019-03-25T19:55:30.798Z,15.27
2019-03-25T19:57:59.497Z,14.53
2019-03-25T20:00:36.492Z,13.23
2019-03-25T20:03:05.832Z,16.33
2019-03-25T20:05:34.513Z,15.07
2019-03-25T20:08:04.947Z,16.30
2019-03-25T20:10:36.092Z,14.70
2019-03-25T20:13:05.074Z,18.20
2019-03-25T20:15:45.584Z,15.37
2019-03-25T20:18:05.082Z,12.97
2019-03-25T20:20:33.799Z,19.47
2019-03-25T20:23:02.512Z,16.03
2019-03-25T20:25:31.187Z,15.90
2019-03-25T20:27:59.850Z,15.20
2019-03-25T20:30:28.587Z,14.43
2019-03-25T20:32:57.243Z,14.77
2019-03-25T20:35:25.919Z,11.83
2019-03-25T20:37:54.580Z,15.47
2019-03-25T20:40:23.269Z,14.17
2019-03-25T20:42:51.935Z,16.40
2019-03-25T20:45:20.634Z,15.07
2019-03-25T20:47:49.542Z,12.97
2019-03-25T20:50:18.217Z,14.13
2019-03-25T20:52:47.045Z,13.53
2019-03-25T20:55:23.387Z,16.10
2019-03-25T20:57:52.123Z,16.53
2019-03-25T21:00:23.704Z,15.37
2019-03-25T21:02:52.426Z,14.93
2019-03-25T21:05:21.108Z,20.20
2019-03-25T21:07:49.796Z,16.23
2019-03-25T21:10:18.558Z,15.50
2019-03-25T21:12:47.398Z,13.27
2019-03-25T21:15:16.136Z,14.30
2019-03-25T21:17:44.769Z,14.23
2019-03-25T21:20:13.563Z,15.33
2019-03-25T21:22:42.222Z,11.93
2019-03-25T21:25:11.012Z,13.23
2019-03-25T21:27:39.723Z,12.30
2019-03-25T21:30:08.711Z,11.30
2019-03-25T21:32:37.408Z,13.53
2019-03-25T21:35:07.343Z,9.43
2019-03-25T21:37:36.229Z,11.43
2019-03-25T21:40:06.842Z,11.50
2019-03-25T21:42:36.007Z,9.67
2019-03-25T21:45:07.973Z,11.83
2019-03-25T21:47:36.730Z,11.97
2019-03-25T21:50:09.243Z,11.53
2019-03-25T21:52:38.206Z,11.10
2019-03-25T21:55:07.795Z,12.17
2019-03-25T21:57:36.471Z,9.20
2019-03-25T22:00:07.347Z,10.70
2019-03-25T22:02:36.048Z,11.07
2019-03-25T22:05:06.674Z,12.83
2019-03-25T22:07:35.344Z,9.50
2019-03-25T22:10:04.819Z,9.30
2019-03-25T22:12:33.498Z,7.83
2019-03-25T22:15:02.167Z,8.43
2019-03-25T22:17:30.855Z,10.43
2019-03-25T22:19:59.553Z,11.00
2019-03-25T22:22:28.223Z,16.07
2019-03-25T22:24:56.905Z,14.03
2019-03-25T22:27:25.594Z,12.60
2019-03-25T22:29:54.272Z,19.10
2019-03-25T22:32:22.942Z,17.73
2019-03-25T22:34:51.669Z,15.40
2019-03-25T22:37:20.389Z,14.07
2019-03-25T22:39:49.079Z,11.87
2019-03-25T22:42:17.771Z,11.37
2019-03-25T22:44:46.456Z,14.73
2019-03-25T22:47:15.139Z,15.37
2019-03-25T22:49:43.820Z,14.23
2019-03-25T22:52:12.487Z,9.17
2019-03-25T22:54:41.157Z,9.97
2019-03-25T22:57:09.830Z,9.33
2019-03-25T22:59:38.578Z,10.93
2019-03-25T23:02:07.355Z,13.67
2019-03-25T23:04:36.064Z,13.20
2019-03-25T23:07:04.730Z,9.93
2019-03-25T23:09:33.412Z,7.87
2019-03-25T23:12:02.099Z,11.00
2019-03-25T23:14:31.053Z,13.37
2019-03-25T23:16:59.900Z,15.00
2019-03-25T23:19:28.752Z,11.93
2019-03-25T23:21:57.669Z,9.23
2019-03-25T23:24:26.517Z,10.33
2019-03-25T23:26:55.343Z,10.53
2019-03-25T23:29:24.192Z,11.67
2019-03-25T23:31:53.064Z,12.77
2019-03-25T23:34:21.930Z,9.40
2019-03-25T23:36:50.750Z,9.67
2019-03-25T23:39:19.614Z,14.70
2019-03-25T23:41:48.536Z,8.73
2019-03-25T23:44:17.829Z,9.67
2019-03-25T23:46:46.655Z,11.50
2019-03-25T23:49:15.512Z,13.93
2019-03-25T23:51:44.338Z,9.33
2019-03-25T23:54:14.094Z,11.03
2019-03-25T23:56:43.044Z,10.17
2019-03-25T23:59:11.890Z,9.57
